Time;durP1;ratioP1;P1;durP2;ratioP2;P2;SDS_P1;SDS_P2;PMS_P1;PMS_P2;Temp;Humidity;BMP_temperature;BMP_pressure;BME280_temperature;BME280_humidity;BME280_pressure;Samples;Min_cycle;Max_cycle;Signal;HPM_P1;HPM_P2
2021/09/26 00:01:12;;;;;;;42.85;8.68;;;;;;;12.36;56.19;98515.16;4920879;29;20494;-75
2021/09/26 00:03:38;;;;;;;26.67;8.48;;;;;;;12.29;55.98;98498.00;4921085;29;20050;-75
2021/09/26 00:06:04;;;;;;;30.20;8.57;;;;;;;12.33;56.05;98515.47;4920945;29;20058;-76
2021/09/26 00:08:30;;;;;;;34.67;6.78;;;;;;;12.37;56.18;98522.22;4920940;29;20435;-75
2021/09/26 00:10:56;;;;;;;29.05;7.35;;;;;;;12.34;56.19;98525.22;4920863;29;20056;-75
2021/09/26 00:13:22;;;;;;;26.98;7.03;;;;;;;12.32;55.95;98524.50;4936705;29;20087;-75
2021/09/26 00:15:48;;;;;;;24.65;6.95;;;;;;;12.33;55.62;98530.69;4920599;29;20043;-74
2021/09/26 00:18:13;;;;;;;31.75;7.93;;;;;;;12.28;55.72;98528.50;4909843;29;20462;-74
2021/09/26 00:20:39;;;;;;;34.13;7.28;;;;;;;12.25;55.67;98517.25;4916218;29;20463;-75
2021/09/26 00:23:05;;;;;;;32.97;7.03;;;;;;;12.32;55.91;98524.50;4937364;29;20052;-75
2021/09/26 00:25:31;;;;;;;31.58;6.65;;;;;;;12.33;55.52;98525.34;4920808;29;20139;-75
2021/09/26 00:27:57;;;;;;;32.03;7.35;;;;;;;12.25;55.44;98507.34;4918547;29;20084;-75
2021/09/26 00:30:23;;;;;;;27.02;7.90;;;;;;;12.30;55.61;98526.50;4936223;29;20052;-75
2021/09/26 00:32:49;;;;;;;30.25;7.63;;;;;;;12.30;55.65;98528.34;4920524;29;20053;-74
2021/09/26 00:35:17;;;;;;;29.48;7.00;;;;;;;12.18;55.46;98503.59;4920123;29;20035;-75
2021/09/26 00:37:43;;;;;;;27.45;6.30;;;;;;;12.24;55.52;98499.50;4920541;29;20063;-75
2021/09/26 00:40:09;;;;;;;24.58;7.03;;;;;;;12.30;55.61;98513.13;4904524;29;20059;-74
2021/09/26 00:42:35;;;;;;;27.45;6.93;;;;;;;12.28;55.50;98509.72;4888806;29;20050;-76
2021/09/26 00:45:03;;;;;;;28.77;6.45;;;;;;;12.29;55.50;98514.09;4904836;29;20056;-75
2021/09/26 00:47:29;;;;;;;25.90;5.82;;;;;;;12.23;55.75;98504.00;4920380;29;20051;-75
2021/09/26 00:49:55;;;;;;;23.55;6.80;;;;;;;12.29;55.34;98511.41;4919532;29;20074;-76
2021/09/26 00:52:21;;;;;;;17.73;5.80;;;;;;;12.30;55.58;98515.78;4935881;29;20067;-75
2021/09/26 00:54:47;;;;;;;19.27;5.95;;;;;;;12.30;55.56;98517.63;4920232;29;20048;-76
2021/09/26 00:57:13;;;;;;;25.75;6.03;;;;;;;12.27;55.23;98518.78;4919963;29;20055;-75
2021/09/26 00:59:39;;;;;;;20.70;5.70;;;;;;;12.32;55.49;98513.78;4920264;29;20071;-76
2021/09/26 01:02:05;;;;;;;32.70;7.13;;;;;;;12.31;55.32;98512.13;4935887;29;20051;-74
2021/09/26 01:04:31;;;;;;;24.80;6.32;;;;;;;12.21;55.35;98510.50;4919789;29;20058;-73
2021/09/26 01:07:20;;;;;;;24.52;6.85;;;;;;;12.27;55.49;98521.47;4919619;29;20451;-75
2021/09/26 01:10:02;;;;;;;25.75;6.60;;;;;;;12.26;55.57;98514.44;4904032;29;20505;-75
2021/09/26 01:12:50;;;;;;;25.55;6.18;;;;;;;12.22;55.47;98507.66;4920146;29;20103;-76
2021/09/26 01:15:31;;;;;;;23.45;5.63;;;;;;;12.20;55.59;98515.03;4920027;29;20066;-75
2021/09/26 01:18:17;;;;;;;20.55;5.97;;;;;;;12.13;55.61;98513.94;4919567;29;20146;-74
2021/09/26 01:20:46;;;;;;;32.88;6.32;;;;;;;12.06;55.99;98513.72;4919469;29;20050;-75
2021/09/26 01:23:41;;;;;;;27.80;6.50;;;;;;;12.00;56.20;98502.75;4918526;29;20493;-76
2021/09/26 01:26:23;;;;;;;22.35;6.45;;;;;;;11.84;56.96;98509.63;4930533;29;20078;-75
2021/09/26 01:28:58;;;;;;;15.25;6.00;;;;;;;11.71;57.23;98503.78;4919162;29;20043;-75
2021/09/26 01:31:40;;;;;;;26.52;7.03;;;;;;;11.57;57.51;98485.53;4934946;29;20522;-76
2021/09/26 01:34:14;;;;;;;31.55;6.80;;;;;;;11.62;57.69;98493.97;4903846;29;20106;-76
2021/09/26 01:36:40;;;;;;;25.23;6.28;;;;;;;11.57;57.77;98501.59;4903616;29;20510;-75
2021/09/26 01:39:08;;;;;;;15.82;6.30;;;;;;;11.54;57.98;98496.53;4935899;29;20071;-76
2021/09/26 01:41:41;;;;;;;23.20;6.80;;;;;;;11.49;58.45;98488.13;4903369;29;20364;-76
2021/09/26 01:44:14;;;;;;;26.02;5.95;;;;;;;11.47;58.22;98495.47;4919860;29;20044;-76
2021/09/26 01:46:43;;;;;;;38.30;7.35;;;;;;;11.36;58.50;98483.97;4919866;29;20039;-75
2021/09/26 01:49:17;;;;;;;26.60;6.35;;;;;;;11.40;58.58;98495.22;4919186;29;20051;-76
2021/09/26 01:51:43;;;;;;;34.67;7.03;;;;;;;11.41;58.49;98500.41;4919220;29;20051;-75
2021/09/26 01:54:11;;;;;;;23.80;6.85;;;;;;;11.34;58.50;98480.59;4918843;29;20090;-76
2021/09/26 01:56:37;;;;;;;28.35;7.53;;;;;;;11.42;58.70;98491.41;4915612;29;20074;-75
2021/09/26 01:59:04;;;;;;;16.63;6.25;;;;;;;11.45;58.48;98492.09;4884213;29;20040;-75
2021/09/26 02:01:30;;;;;;;22.50;7.10;;;;;;;11.46;58.40;98491.94;4902053;29;20091;-76
2021/09/26 02:03:56;;;;;;;25.40;6.78;;;;;;;11.37;58.40;98480.31;4934637;29;20146;-76
2021/09/26 02:06:21;;;;;;;17.80;6.70;;;;;;;11.47;58.40;98492.78;4918754;29;20047;-76
2021/09/26 02:08:47;;;;;;;24.65;7.63;;;;;;;11.49;58.38;98494.31;4918651;29;20063;-74
2021/09/26 02:11:13;;;;;;;22.98;7.32;;;;;;;11.54;58.47;98501.91;4918643;29;20052;-75
2021/09/26 02:13:40;;;;;;;35.47;7.47;;;;;;;11.56;58.36;98502.59;4934482;29;20052;-76
2021/09/26 02:16:05;;;;;;;27.58;7.82;;;;;;;11.51;58.27;98480.78;4934405;29;20053;-76
2021/09/26 02:18:31;;;;;;;19.25;7.90;;;;;;;11.64;58.05;98497.34;4908656;29;20039;-76
2021/09/26 02:20:58;;;;;;;28.98;7.60;;;;;;;11.55;58.07;98482.19;4916956;29;20050;-77
2021/09/26 02:23:24;;;;;;;35.92;7.38;;;;;;;11.70;58.02;98504.78;4935481;29;20079;-76
2021/09/26 02:25:50;;;;;;;23.50;7.00;;;;;;;11.73;58.00;98499.09;4934194;29;20415;-78
2021/09/26 02:28:16;;;;;;;27.45;7.30;;;;;;;11.81;57.96;98509.94;4918599;29;20039;-75
2021/09/26 02:30:41;;;;;;;29.40;7.70;;;;;;;11.86;57.58;98498.78;4918322;29;20609;-74
2021/09/26 02:33:07;;;;;;;33.65;8.05;;;;;;;11.93;57.72;98507.91;4934521;29;20071;-77
2021/09/26 02:35:33;;;;;;;28.08;7.25;;;;;;;11.94;57.72;98504.22;4918389;29;20048;-74
2021/09/26 02:37:59;;;;;;;42.33;10.85;;;;;;;11.96;57.80;98496.91;4902168;29;20066;-75
2021/09/26 02:40:25;;;;;;;37.67;9.98;;;;;;;11.98;57.95;98499.41;4918165;29;20511;-75
2021/09/26 02:43:33;;;;;;;23.83;8.52;;;;;;;12.00;57.55;98500.06;4918384;29;20143;-79
2021/09/26 02:46:04;;;;;;;26.92;9.40;;;;;;;12.02;57.70;98506.97;4934008;29;20040;-75
2021/09/26 02:48:30;;;;;;;30.90;9.30;;;;;;;12.01;57.91;98504.47;4933975;29;20052;-78
2021/09/26 02:50:56;;;;;;;35.85;9.02;;;;;;;12.13;57.83;98519.31;4918306;29;20118;-74
2021/09/26 02:53:23;;;;;;;20.45;8.80;;;;;;;12.21;58.02;98522.06;4935197;29;20058;-76
2021/09/26 02:55:49;;;;;;;29.02;9.68;;;;;;;12.30;57.50;98521.16;4902440;29;20052;-78
2021/09/26 02:58:15;;;;;;;37.60;10.45;;;;;;;12.29;57.97;98497.19;4886770;29;20107;-76
2021/09/26 03:00:44;;;;;;;33.20;10.20;;;;;;;12.45;57.60;98512.53;4902387;29;20036;-77
2021/09/26 03:03:11;;;;;;;30.85;10.52;;;;;;;12.51;57.55;98503.91;4902271;29;20043;-79
2021/09/26 03:05:37;;;;;;;31.40;10.25;;;;;;;12.56;57.71;98509.63;4918367;29;20039;-77
2021/09/26 03:08:04;;;;;;;29.17;8.98;;;;;;;12.70;57.61;98521.63;4918103;29;20467;-75
2021/09/26 03:10:30;;;;;;;37.03;9.52;;;;;;;12.78;57.40;98503.75;4902446;29;20044;-77
2021/09/26 03:12:56;;;;;;;35.88;9.65;;;;;;;12.92;57.15;98514.91;4919756;29;20074;-78
2021/09/26 03:15:22;;;;;;;40.47;9.75;;;;;;;12.95;57.27;98515.44;4906313;29;20540;-74
2021/09/26 03:17:48;;;;;;;31.23;10.13;;;;;;;13.00;57.44;98517.66;4921652;29;20511;-76
2021/09/26 03:20:14;;;;;;;26.65;8.90;;;;;;;13.00;57.28;98507.75;4875397;29;20047;-77
2021/09/26 03:22:40;;;;;;;27.05;9.55;;;;;;;13.12;56.96;98508.31;4937497;29;20438;-77
2021/09/26 03:25:06;;;;;;;17.40;8.05;;;;;;;13.23;57.09;98505.41;4905659;29;20495;-76
2021/09/26 03:27:32;;;;;;;37.00;9.63;;;;;;;13.24;56.89;98493.69;4905785;29;20051;-76
2021/09/26 03:29:58;;;;;;;21.88;8.82;;;;;;;13.40;56.28;98508.19;4921493;29;20125;-78
2021/09/26 03:32:24;;;;;;;22.80;8.88;;;;;;;13.54;56.20;98504.84;4921764;29;20078;-78
2021/09/26 03:34:50;;;;;;;24.85;8.23;;;;;;;13.59;55.61;98507.91;4921336;29;20056;-79
2021/09/26 03:37:16;;;;;;;19.65;7.28;;;;;;;13.66;55.45;98503.56;4905735;29;20430;-77
2021/09/26 03:39:42;;;;;;;20.77;7.78;;;;;;;13.81;55.22;98511.84;4905554;29;20090;-76
2021/09/26 03:42:08;;;;;;;30.13;7.93;;;;;;;13.94;54.72;98514.88;4921401;29;20625;-85
2021/09/26 03:44:34;;;;;;;22.75;7.03;;;;;;;14.08;54.23;98508.88;4890924;29;20067;-77
2021/09/26 03:47:00;;;;;;;16.63;7.20;;;;;;;14.14;54.28;98507.38;4921013;29;20050;-78
2021/09/26 03:49:26;;;;;;;19.65;7.70;;;;;;;14.19;54.12;98510.41;4905319;29;20510;-77
2021/09/26 03:51:51;;;;;;;27.30;7.38;;;;;;;14.27;53.64;98509.56;4920834;29;20052;-77
2021/09/26 03:54:18;;;;;;;22.23;6.43;;;;;;;14.26;53.79;98507.91;4921825;29;20044;-77
2021/09/26 03:56:44;;;;;;;18.92;7.00;;;;;;;14.31;53.66;98484.88;4920761;29;20052;-80
2021/09/26 03:59:13;;;;;;;25.00;6.72;;;;;;;14.29;53.42;98494.97;4904442;29;20080;-77
2021/09/26 04:01:40;;;;;;;22.52;6.93;;;;;;;14.31;53.33;98479.50;4903280;29;20052;-78
2021/09/26 04:04:06;;;;;;;16.38;5.80;;;;;;;14.53;53.04;98496.00;4918574;29;20518;-81
2021/09/26 04:06:35;;;;;;;13.15;6.20;;;;;;;14.63;52.08;98499.38;4934412;29;20050;-80
2021/09/26 04:09:01;;;;;;;10.98;5.20;;;;;;;14.69;51.42;98495.16;4934514;29;20048;-76
2021/09/26 04:11:27;;;;;;;12.35;5.35;;;;;;;14.79;51.33;98496.66;4887183;29;20502;-78
2021/09/26 04:13:53;;;;;;;17.75;4.78;;;;;;;14.86;50.79;98498.69;4934491;29;20131;-77
2021/09/26 04:16:18;;;;;;;14.25;4.88;;;;;;;14.89;50.50;98506.38;4921137;29;20100;-77
2021/09/26 04:18:44;;;;;;;15.10;4.57;;;;;;;14.82;50.36;98500.88;4921108;29;20538;-77
2021/09/26 04:21:10;;;;;;;13.73;4.47;;;;;;;14.85;50.30;98505.03;4920903;29;20459;-76
2021/09/26 04:23:36;;;;;;;16.88;4.43;;;;;;;14.86;50.73;98504.91;4919938;29;20087;-77
2021/09/26 04:26:02;;;;;;;9.48;4.47;;;;;;;14.90;50.55;98495.47;4904692;29;20062;-75
2021/09/26 04:28:28;;;;;;;10.63;4.45;;;;;;;14.93;50.72;98492.44;4903977;29;20130;-78
2021/09/26 04:30:53;;;;;;;16.42;4.93;;;;;;;14.86;50.80;98487.91;4936195;29;20138;-76
2021/09/26 04:33:19;;;;;;;16.10;5.22;;;;;;;14.91;50.20;98491.75;4889338;29;20043;-77
2021/09/26 04:35:45;;;;;;;19.17;5.63;;;;;;;14.82;50.66;98480.19;4920564;29;20514;-78
2021/09/26 04:38:11;;;;;;;25.92;6.47;;;;;;;14.90;50.55;98484.72;4920318;29;20139;-77
2021/09/26 04:40:39;;;;;;;26.27;6.00;;;;;;;15.07;50.49;98494.41;4904257;29;20047;-77
2021/09/26 04:43:05;;;;;;;17.33;6.85;;;;;;;15.04;50.63;98473.25;4920421;29;20043;-76
2021/09/26 04:45:31;;;;;;;15.93;7.15;;;;;;;15.25;50.06;98496.03;4920085;29;20130;-77
2021/09/26 04:47:57;;;;;;;24.67;10.15;;;;;;;15.28;49.70;98491.16;4935501;29;20122;-77
2021/09/26 04:50:23;;;;;;;21.20;10.13;;;;;;;15.16;49.57;98475.56;4904552;29;20079;-77
2021/09/26 04:52:49;;;;;;;19.25;8.93;;;;;;;15.17;50.04;98488.84;4904188;29;20048;-77
2021/09/26 04:55:15;;;;;;;21.08;8.73;;;;;;;15.14;49.62;98482.97;4904238;29;20123;-78
2021/09/26 04:57:40;;;;;;;27.55;9.60;;;;;;;15.20;49.88;98487.66;4936888;29;20091;-78
2021/09/26 05:00:07;;;;;;;32.22;11.32;;;;;;;15.19;49.72;98484.09;4920084;29;20051;-77
2021/09/26 05:02:33;;;;;;;21.88;10.15;;;;;;;15.27;49.78;98500.25;4935865;29;20058;-76
2021/09/26 05:04:59;;;;;;;27.02;9.82;;;;;;;15.05;50.49;98501.81;4935862;29;20051;-78
2021/09/26 05:07:24;;;;;;;20.85;9.77;;;;;;;14.76;51.06;98505.06;4936821;29;20186;-79
2021/09/26 05:09:50;;;;;;;20.92;9.80;;;;;;;14.64;51.59;98509.13;4919647;29;20415;-78
2021/09/26 05:12:16;;;;;;;19.73;8.98;;;;;;;14.80;51.23;98490.25;4919774;29;20063;-77
2021/09/26 05:14:42;;;;;;;21.25;8.93;;;;;;;15.02;50.59;98509.41;4904232;29;20134;-77
2021/09/26 05:17:07;;;;;;;18.85;9.45;;;;;;;15.22;50.25;98513.38;4903815;29;20051;-76
2021/09/26 05:19:33;;;;;;;26.05;10.27;;;;;;;15.34;50.30;98518.38;4935430;29;20521;-79
2021/09/26 05:21:59;;;;;;;18.80;10.43;;;;;;;15.32;50.34;98518.56;4935461;29;20043;-77
2021/09/26 05:24:25;;;;;;;17.95;10.73;;;;;;;15.33;50.44;98519.41;4903873;29;20036;-77
2021/09/26 05:26:51;;;;;;;22.98;11.48;;;;;;;15.37;50.58;98502.72;4904445;29;20057;-78
2021/09/26 05:29:17;;;;;;;22.88;10.93;;;;;;;15.48;50.50;98488.06;4935619;29;20585;-77
2021/09/26 05:31:42;;;;;;;24.92;11.73;;;;;;;15.90;49.98;98522.72;4935492;29;20051;-76
2021/09/26 05:34:09;;;;;;;23.85;11.80;;;;;;;15.96;49.96;98516.63;4936272;29;20079;-77
2021/09/26 05:36:36;;;;;;;24.02;11.13;;;;;;;16.24;49.66;98508.03;4935342;29;20043;-76
2021/09/26 05:39:03;;;;;;;21.00;11.27;;;;;;;16.45;48.91;98504.69;4935017;29;20114;-77
2021/09/26 05:41:29;;;;;;;22.75;11.40;;;;;;;16.51;48.69;98483.22;4935233;29;20138;-77
2021/09/26 05:43:54;;;;;;;26.27;11.27;;;;;;;16.66;48.72;98498.59;4934972;29;20122;-77
2021/09/26 05:46:20;;;;;;;25.27;11.05;;;;;;;16.58;48.49;98494.09;4918756;29;20051;-77
2021/09/26 05:48:46;;;;;;;21.50;11.75;;;;;;;16.56;48.81;98506.13;4902891;29;20051;-76
2021/09/26 05:51:12;;;;;;;20.15;10.88;;;;;;;16.17;49.12;98494.44;4918838;29;20538;-76
2021/09/26 05:53:38;;;;;;;23.73;11.13;;;;;;;16.11;49.67;98497.84;4918828;29;20530;-76
2021/09/26 05:56:04;;;;;;;24.77;11.35;;;;;;;16.14;49.96;98499.34;4934032;29;20502;-76
2021/09/26 05:58:29;;;;;;;19.88;10.77;;;;;;;16.38;49.56;98495.63;4933818;29;20044;-76
2021/09/26 06:00:55;;;;;;;17.98;9.93;;;;;;;16.54;48.88;98482.00;4887065;29;20566;-77
2021/09/26 06:03:21;;;;;;;25.58;11.05;;;;;;;16.81;49.04;98494.09;4934199;29;20537;-76
2021/09/26 06:05:47;;;;;;;20.02;10.75;;;;;;;17.06;48.50;98500.09;4934076;29;20095;-77
2021/09/26 06:08:13;;;;;;;24.13;11.13;;;;;;;17.28;47.92;98484.84;4902502;29;20110;-77
2021/09/26 06:10:39;;;;;;;20.70;11.07;;;;;;;17.53;47.22;98498.91;4902270;29;20070;-76
2021/09/26 06:13:04;;;;;;;27.17;12.50;;;;;;;17.61;47.06;98490.69;4933915;29;20047;-76
2021/09/26 06:15:30;;;;;;;25.33;11.95;;;;;;;17.68;46.42;98507.84;4933990;29;20134;-77
2021/09/26 06:17:59;;;;;;;22.10;11.82;;;;;;;17.62;45.60;98486.94;4918316;29;20044;-77
2021/09/26 06:20:25;;;;;;;24.45;10.55;;;;;;;17.58;45.22;98471.31;4934150;29;20487;-77
2021/09/26 06:22:52;;;;;;;20.63;10.88;;;;;;;17.67;45.19;98484.50;4934233;29;20058;-78
2021/09/26 06:25:18;;;;;;;26.50;11.02;;;;;;;17.59;44.61;98481.09;4934126;29;20443;-78
2021/09/26 06:27:43;;;;;;;24.77;11.00;;;;;;;17.57;44.69;98484.00;4933932;29;20075;-77
2021/09/26 06:30:12;;;;;;;25.33;10.38;;;;;;;17.44;44.90;98483.81;4934090;29;20137;-79
2021/09/26 06:32:37;;;;;;;17.92;10.13;;;;;;;17.32;45.56;98485.31;4934346;29;20384;-78
2021/09/26 06:35:05;;;;;;;18.23;10.32;;;;;;;17.29;45.21;98480.28;4902662;29;20186;-77
2021/09/26 06:37:30;;;;;;;20.00;9.50;;;;;;;17.35;45.49;98483.06;4933802;29;20454;-77
2021/09/26 06:39:56;;;;;;;21.65;9.15;;;;;;;17.35;45.19;98452.53;4918376;29;20130;-77
2021/09/26 06:42:22;;;;;;;16.60;9.27;;;;;;;17.46;45.30;98457.44;4933855;29;20048;-77
2021/09/26 06:44:48;;;;;;;20.13;9.57;;;;;;;17.43;45.60;98476.72;4918086;29;20054;-76
2021/09/26 06:47:14;;;;;;;20.85;9.02;;;;;;;17.56;45.26;98468.78;4934573;29;20047;-77
2021/09/26 06:49:40;;;;;;;15.65;9.00;;;;;;;17.56;44.78;98455.28;4922000;29;20051;-77
2021/09/26 06:52:06;;;;;;;21.10;9.80;;;;;;;17.66;44.66;98457.69;4906592;29;20052;-78
2021/09/26 06:54:32;;;;;;;18.17;9.00;;;;;;;17.71;44.31;98469.63;4937603;29;20122;-79
2021/09/26 06:56:59;;;;;;;15.75;8.18;;;;;;;17.65;43.89;98464.97;4921863;29;20044;-78
2021/09/26 06:59:24;;;;;;;14.23;7.95;;;;;;;17.52;44.28;98455.84;4890919;29;20075;-77
2021/09/26 07:01:50;;;;;;;18.75;9.18;;;;;;;17.56;44.38;98473.34;4921744;29;20471;-77
2021/09/26 07:04:16;;;;;;;15.25;8.80;;;;;;;17.81;44.95;98463.94;4921711;29;20071;-77
2021/09/26 07:06:42;;;;;;;18.63;8.52;;;;;;;18.09;43.87;98466.75;4921587;29;20052;-77
2021/09/26 07:09:08;;;;;;;18.08;9.20;;;;;;;18.13;43.62;98473.44;4937129;29;20048;-79
2021/09/26 07:11:34;;;;;;;20.90;9.70;;;;;;;18.11;44.10;98453.84;4905734;29;20087;-78
2021/09/26 07:13:59;;;;;;;25.70;11.73;;;;;;;18.44;43.90;98469.56;4921484;29;20071;-78
2021/09/26 07:16:25;;;;;;;23.63;12.70;;;;;;;18.58;42.96;98471.38;4905439;29;20127;-77
2021/09/26 07:18:52;;;;;;;19.13;12.05;;;;;;;18.63;42.47;98468.06;4890308;29;20047;-78
2021/09/26 07:21:18;;;;;;;19.67;11.15;;;;;;;18.71;42.57;98459.00;4937365;29;20139;-78
2021/09/26 07:23:44;;;;;;;17.25;9.88;;;;;;;18.55;42.91;98460.09;4921447;29;20063;-78
2021/09/26 07:26:10;;;;;;;23.65;10.90;;;;;;;18.63;42.73;98460.78;4921694;29;20083;-78
2021/09/26 07:28:36;;;;;;;23.48;10.75;;;;;;;18.58;42.98;98462.38;4937287;29;20075;-78
2021/09/26 07:31:02;;;;;;;21.25;10.43;;;;;;;18.64;43.03;98454.31;4921562;29;20094;-78
2021/09/26 07:33:28;;;;;;;20.95;10.38;;;;;;;18.83;43.52;98454.72;4921066;29;20482;-78
2021/09/26 07:35:53;;;;;;;19.98;9.25;;;;;;;18.85;42.29;98449.94;4921001;29;20043;-77
2021/09/26 07:38:19;;;;;;;23.23;9.70;;;;;;;18.96;42.32;98453.97;4920782;29;20110;-78
2021/09/26 07:40:45;;;;;;;16.15;9.40;;;;;;;19.12;42.18;98450.94;4937613;29;20451;-78
2021/09/26 07:43:12;;;;;;;22.70;10.95;;;;;;;19.11;42.34;98452.81;4936808;29;20115;-79
2021/09/26 07:45:38;;;;;;;17.13;8.98;;;;;;;19.13;42.28;98448.03;4889575;29;20118;-78
2021/09/26 07:48:04;;;;;;;14.52;8.38;;;;;;;19.07;42.11;98465.09;4920885;29;20134;-78
2021/09/26 07:50:31;;;;;;;15.40;9.45;;;;;;;19.08;42.32;98450.50;4920763;29;20052;-78
2021/09/26 07:52:57;;;;;;;17.40;9.27;;;;;;;19.13;42.98;98453.44;4921019;29;20511;-78
2021/09/26 07:55:23;;;;;;;15.63;8.00;;;;;;;18.84;42.52;98459.09;4936638;29;20047;-78
2021/09/26 07:57:49;;;;;;;20.17;8.05;;;;;;;18.88;42.60;98439.56;4921128;29;20043;-78
2021/09/26 08:00:15;;;;;;;15.43;8.45;;;;;;;19.15;42.20;98443.25;4905083;29;20071;-78
2021/09/26 08:02:41;;;;;;;22.15;9.52;;;;;;;19.07;42.53;98448.84;4936495;29;20044;-77
2021/09/26 08:05:08;;;;;;;25.27;9.00;;;;;;;19.03;42.31;98458.41;4889496;29;20078;-78
2021/09/26 08:07:34;;;;;;;17.13;7.97;;;;;;;18.82;42.77;98453.03;4920446;29;20142;-79
2021/09/26 08:10:00;;;;;;;14.93;7.82;;;;;;;18.76;42.53;98468.19;4905066;29;20414;-77
2021/09/26 08:12:26;;;;;;;17.63;8.65;;;;;;;18.91;42.84;98459.97;4920429;29;20550;-79
2021/09/26 08:14:52;;;;;;;26.45;8.57;;;;;;;19.00;42.60;98461.50;4935977;29;20047;-78
2021/09/26 08:17:18;;;;;;;17.90;9.65;;;;;;;18.78;42.78;98465.31;4920337;29;20135;-78
2021/09/26 08:19:44;;;;;;;13.70;8.88;;;;;;;18.56;43.60;98468.00;4920811;29;20047;-77
2021/09/26 08:22:09;;;;;;;21.50;9.70;;;;;;;18.72;43.64;98461.50;4921053;29;20371;-78
2021/09/26 08:24:36;;;;;;;15.68;7.93;;;;;;;18.83;43.24;98462.84;4921321;29;20530;-77
2021/09/26 08:27:02;;;;;;;11.40;7.65;;;;;;;19.00;42.31;98464.22;4904904;29;20199;-80
2021/09/26 08:29:28;;;;;;;20.42;8.05;;;;;;;19.15;42.22;98462.22;4904387;29;20494;-78
2021/09/26 08:31:54;;;;;;;13.38;7.63;;;;;;;19.09;42.14;98452.19;4904223;29;20053;-78
2021/09/26 08:34:20;;;;;;;15.38;7.28;;;;;;;19.27;42.00;98462.50;4919994;29;20043;-78
2021/09/26 08:36:46;;;;;;;12.35;7.22;;;;;;;19.34;41.64;98466.09;4873356;29;20099;-78
2021/09/26 08:39:12;;;;;;;15.70;7.82;;;;;;;19.32;42.06;98472.72;4920000;29;20198;-80
2021/09/26 08:41:38;;;;;;;13.38;8.18;;;;;;;19.37;41.84;98470.28;4920305;29;20048;-78
2021/09/26 08:44:05;;;;;;;22.48;8.50;;;;;;;19.30;42.24;98470.22;4904363;29;20410;-79
2021/09/26 08:46:32;;;;;;;29.57;8.93;;;;;;;19.23;41.86;98466.66;4936177;29;20051;-78
2021/09/26 08:48:57;;;;;;;15.60;7.55;;;;;;;18.83;42.49;98470.97;4935197;29;20812;-78
2021/09/26 08:51:23;;;;;;;17.23;7.53;;;;;;;18.45;43.06;98463.94;4919546;29;20494;-78
2021/09/26 08:53:50;;;;;;;13.90;7.60;;;;;;;18.15;43.72;98455.13;4935801;29;20093;-79
2021/09/26 08:56:16;;;;;;;14.25;7.95;;;;;;;18.54;43.75;98470.09;4919919;29;20044;-78
2021/09/26 08:58:42;;;;;;;18.90;7.88;;;;;;;18.99;47.31;98473.34;4888220;29;20079;-77
2021/09/26 09:01:08;;;;;;;23.30;8.20;;;;;;;19.16;43.80;98469.31;4919762;29;20090;-77
2021/09/26 09:03:34;;;;;;;17.75;8.05;;;;;;;19.36;41.86;98474.00;4919614;29;20486;-77
2021/09/26 09:06:00;;;;;;;15.25;7.85;;;;;;;19.07;42.17;98477.78;4903938;29;20511;-77
2021/09/26 09:08:26;;;;;;;17.30;7.63;;;;;;;18.91;42.16;98482.47;4903794;29;20045;-76
2021/09/26 09:10:53;;;;;;;17.35;8.30;;;;;;;19.02;42.64;98481.09;4903163;29;20048;-76
2021/09/26 09:13:21;;;;;;;15.73;8.15;;;;;;;19.48;42.13;98483.22;4919505;29;20062;-76
2021/09/26 09:15:52;;;;;;;14.30;7.63;;;;;;;19.86;41.07;98480.13;4903459;29;20396;-77
2021/09/26 09:18:18;;;;;;;24.30;9.13;;;;;;;20.19;40.95;98484.78;4903423;29;20047;-75
2021/09/26 09:20:43;;;;;;;22.05;8.27;;;;;;;20.37;40.42;98483.16;4903977;29;20139;-76
2021/09/26 09:23:13;;;;;;;16.98;7.28;;;;;;;20.43;39.46;98486.09;4887976;29;20047;-78
2021/09/26 09:25:57;;;;;;;16.40;6.97;;;;;;;20.34;39.13;98467.25;4935130;29;20549;-78
2021/09/26 09:28:30;;;;;;;15.38;7.57;;;;;;;19.97;39.58;98476.81;4903429;29;20100;-78
2021/09/26 09:30:59;;;;;;;16.23;7.68;;;;;;;19.87;40.13;98477.19;4934800;29;20056;-77
2021/09/26 09:33:35;;;;;;;;;;;;;;;19.97;40.15;98471.38;4935158;29;20506;-77
2021/09/26 09:36:01;;;;;;;20.80;6.38;;;;;;;20.08;39.01;98476.22;4903830;29;20022;-77
2021/09/26 09:38:33;;;;;;;14.40;6.28;;;;;;;20.19;38.63;98484.78;4934410;29;20410;-77
2021/09/26 09:40:59;;;;;;;14.55;6.93;;;;;;;20.27;38.67;98476.44;4903073;29;20438;-77
2021/09/26 09:43:27;;;;;;;21.13;7.80;;;;;;;20.31;39.26;98484.00;4918962;29;20043;-77
2021/09/26 09:46:02;;;;;;;14.30;7.13;;;;;;;20.39;38.51;98480.25;4888145;29;20142;-78
2021/09/26 09:48:31;;;;;;;19.10;6.43;;;;;;;20.36;37.51;98469.78;4934368;29;20036;-77
2021/09/26 09:51:01;;;;;;;13.38;6.57;;;;;;;20.22;35.90;98473.53;4919109;29;20040;-77
2021/09/26 09:53:31;;;;;;;16.75;6.25;;;;;;;19.95;36.40;98472.63;4918734;29;20063;-76
2021/09/26 09:56:04;;;;;;;14.68;7.03;;;;;;;19.93;37.30;98464.66;4918687;29;20557;-76
2021/09/26 09:58:37;;;;;;;19.88;6.43;;;;;;;20.11;37.21;98470.34;4934932;29;20043;-77
2021/09/26 10:01:05;;;;;;;14.82;6.95;;;;;;;20.10;36.66;98470.56;4918494;29;20051;-76
2021/09/26 10:03:33;;;;;;;19.58;8.35;;;;;;;20.19;36.94;98479.34;4934351;29;20051;-76
2021/09/26 10:06:01;;;;;;;20.37;10.40;;;;;;;20.21;36.53;98480.00;4918597;29;20075;-76
2021/09/26 10:08:33;;;;;;;23.58;9.75;;;;;;;20.19;36.49;98473.94;4934626;29;20392;-76
2021/09/26 10:11:06;;;;;;;20.65;9.80;;;;;;;19.98;36.91;98477.66;4934243;29;20047;-77
2021/09/26 10:13:32;;;;;;;19.45;10.85;;;;;;;19.82;37.22;98484.25;4918660;29;20086;-75
2021/09/26 10:15:58;;;;;;;20.02;10.60;;;;;;;19.44;37.61;98467.56;4902607;29;20426;-76
2021/09/26 10:18:25;;;;;;;21.02;11.27;;;;;;;19.25;38.58;98482.69;4902816;29;20052;-78
2021/09/26 10:20:51;;;;;;;20.77;8.70;;;;;;;19.35;38.10;98472.34;4934060;29;20044;-79
2021/09/26 10:23:18;;;;;;;19.27;9.27;;;;;;;19.42;37.49;98478.63;4886400;29;20050;-77
2021/09/26 10:25:44;;;;;;;25.83;11.40;;;;;;;19.36;37.79;98482.13;4918070;29;20039;-78
2021/09/26 10:28:10;;;;;;;27.33;10.75;;;;;;;19.21;38.01;98474.13;4902527;29;20442;-77
2021/09/26 10:30:36;;;;;;;23.92;10.68;;;;;;;19.21;38.29;98479.53;4918205;29;20134;-76
2021/09/26 10:33:01;;;;;;;21.17;11.43;;;;;;;19.15;38.64;98467.66;4902492;29;20142;-77
2021/09/26 10:35:27;;;;;;;22.77;10.60;;;;;;;19.21;38.32;98481.41;4933601;29;20083;-77
2021/09/26 10:37:54;;;;;;;18.30;10.05;;;;;;;19.13;38.82;98479.69;4902153;29;20079;-79
2021/09/26 10:40:20;;;;;;;20.08;10.23;;;;;;;19.02;38.86;98469.41;4934134;29;20130;-77
2021/09/26 10:42:46;;;;;;;23.25;12.32;;;;;;;19.07;39.06;98475.94;4918127;29;20047;-77
2021/09/26 10:45:12;;;;;;;21.70;13.05;;;;;;;19.04;39.27;98470.06;4871281;29;20040;-77
2021/09/26 10:47:39;;;;;;;28.45;12.85;;;;;;;19.09;39.29;98451.34;4933379;29;20078;-77
2021/09/26 10:50:08;;;;;;;26.20;14.15;;;;;;;19.11;39.18;98471.78;4933772;29;20094;-77
2021/09/26 10:52:35;;;;;;;23.83;15.32;;;;;;;18.84;39.72;98451.81;4918051;29;20052;-75
2021/09/26 10:55:21;;;;;;;30.10;13.80;;;;;;;18.82;39.81;98463.88;4933709;29;20054;-77
2021/09/26 10:57:48;;;;;;;30.58;14.35;;;;;;;19.04;39.54;98465.50;4887002;29;20143;-78
2021/09/26 11:00:34;;;;;;;37.78;15.32;;;;;;;19.19;38.88;98456.41;4918280;29;20054;-78
2021/09/26 11:03:17;;;;;;;24.48;13.55;;;;;;;19.37;38.62;98465.69;4908274;29;20059;-77
2021/09/26 11:05:44;;;;;;;24.58;13.20;;;;;;;19.40;38.60;98464.44;4934167;29;20088;-78
2021/09/26 11:08:35;;;;;;;26.02;13.35;;;;;;;19.50;38.53;98481.16;4917803;29;20656;-78
2021/09/26 11:11:01;;;;;;;24.80;13.02;;;;;;;19.30;38.69;98474.81;4901573;29;20047;-77
2021/09/26 11:13:26;;;;;;;24.42;11.88;;;;;;;19.15;39.10;98464.09;4917929;29;20048;-78
2021/09/26 11:16:13;;;;;;;26.38;13.20;;;;;;;19.09;39.50;98473.84;4918422;29;20043;-78
2021/09/26 11:18:52;;;;;;;19.88;11.30;;;;;;;19.15;39.33;98481.19;4917735;29;20455;-78
2021/09/26 11:21:37;;;;;;;15.18;8.30;;;;;;;19.28;39.02;98479.59;4933860;29;20138;-77
2021/09/26 11:24:18;;;;;;;18.27;8.20;;;;;;;19.30;38.42;98480.25;4917953;29;20078;-78
2021/09/26 11:27:07;;;;;;;35.80;10.32;;;;;;;19.27;39.02;98480.63;4933426;29;20050;-78